createdAt,value
2022-12-11T00:00:50.348Z,62.88
2022-12-11T00:03:48.983Z,74.75
2022-12-11T00:06:28.947Z,68.97
2022-12-11T00:09:06.577Z,64.03
2022-12-11T00:11:46.989Z,59.60
2022-12-11T00:14:19.628Z,74.80
2022-12-11T00:16:54.164Z,70.13
2022-12-11T00:19:49.078Z,74.78
2022-12-11T00:25:19.492Z,71.15
2022-12-11T00:27:58.981Z,61.80
2022-12-11T00:30:37.556Z,73.05
2022-12-11T00:33:11.873Z,70.28
2022-12-11T00:36:09.698Z,59.33
2022-12-11T00:38:47.769Z,70.05
2022-12-11T00:41:25.798Z,69.35
2022-12-11T00:43:59.812Z,71.05
2022-12-11T00:46:37.847Z,77.05
2022-12-11T00:49:10.445Z,75.65
2022-12-11T00:52:08.282Z,73.68
2022-12-11T00:54:40.874Z,75.93
2022-12-11T00:57:13.506Z,78.40
2022-12-11T00:59:44.148Z,65.47
2022-12-11T01:02:13.956Z,73.70
2022-12-11T01:04:41.549Z,69.53
2022-12-11T01:07:09.310Z,68.93
2022-12-11T01:09:54.846Z,68.22
2022-12-11T01:12:22.642Z,66.05
2022-12-11T01:14:52.003Z,62.55
2022-12-11T01:17:19.591Z,66.43
2022-12-11T01:19:47.443Z,63.47
2022-12-11T01:22:15.139Z,62.20
2022-12-11T01:24:44.038Z,61.97
2022-12-11T01:27:11.691Z,59.00
2022-12-11T01:29:40.017Z,59.58
2022-12-11T01:32:09.067Z,61.08
2022-12-11T01:34:37.387Z,63.85
2022-12-11T01:37:06.016Z,65.95
2022-12-11T01:39:35.082Z,61.15
2022-12-11T01:42:02.784Z,64.72
2022-12-11T01:45:08.290Z,67.90
2022-12-11T01:47:38.436Z,64.25
2022-12-11T01:50:06.788Z,62.70
2022-12-11T01:52:34.667Z,65.38
2022-12-11T01:55:02.531Z,63.72
2022-12-11T01:57:31.002Z,55.78
2022-12-11T01:59:58.834Z,60.80
2022-12-11T02:02:30.479Z,59.47
2022-12-11T02:04:59.504Z,57.60
2022-12-11T02:07:30.954Z,59.13
2022-12-11T02:10:28.802Z,55.92
2022-12-11T02:13:03.539Z,55.30
2022-12-11T02:15:36.739Z,55.17
2022-12-11T02:20:43.062Z,46.60
2022-12-11T02:23:46.039Z,55.97
2022-12-11T02:26:28.066Z,50.25
2022-12-11T02:31:34.211Z,50.33
2022-12-11T02:34:05.584Z,49.35
2022-12-11T02:36:38.100Z,42.60
2022-12-11T02:39:09.906Z,46.55
2022-12-11T02:41:39.984Z,42.57
2022-12-11T02:44:12.100Z,44.03
2022-12-11T02:46:42.954Z,47.92
2022-12-11T02:49:13.359Z,43.05
2022-12-11T02:51:43.306Z,45.35
2022-12-11T02:54:16.070Z,48.13
2022-12-11T02:56:48.994Z,43.35
2022-12-11T02:59:24.975Z,45.05
2022-12-11T03:01:53.339Z,47.60
2022-12-11T03:04:24.802Z,47.55
2022-12-11T03:07:00.001Z,42.45
2022-12-11T03:09:31.589Z,42.15
2022-12-11T03:14:28.549Z,40.50
2022-12-11T03:17:05.147Z,34.75
2022-12-11T03:19:38.000Z,38.50
2022-12-11T03:22:12.263Z,37.15
2022-12-11T03:24:51.963Z,37.05
2022-12-11T03:27:29.080Z,36.50
2022-12-11T03:30:01.637Z,37.22
2022-12-11T03:32:39.101Z,35.63
2022-12-11T03:35:13.146Z,43.55
2022-12-11T03:37:47.077Z,37.50
2022-12-11T03:40:17.976Z,38.17
2022-12-11T03:42:50.004Z,39.65
2022-12-11T03:45:21.847Z,37.85
2022-12-11T03:50:21.145Z,44.00
2022-12-11T03:52:49.648Z,38.60
2022-12-11T03:55:20.972Z,40.78
2022-12-11T03:57:49.663Z,38.33
2022-12-11T04:00:22.989Z,40.25
2022-12-11T04:03:09.656Z,43.65
2022-12-11T04:05:44.002Z,44.72
2022-12-11T04:08:12.145Z,42.65
2022-12-11T04:10:40.560Z,38.03
2022-12-11T04:13:10.099Z,41.95
2022-12-11T04:15:42.041Z,40.80
2022-12-11T04:18:25.558Z,39.63
2022-12-11T04:21:12.171Z,45.60
2022-12-11T04:23:57.524Z,42.33
2022-12-11T04:26:27.065Z,42.33
2022-12-11T04:28:55.710Z,46.65
2022-12-11T04:31:25.083Z,42.17
2022-12-11T04:33:53.686Z,45.67
2022-12-11T04:36:21.268Z,41.85
2022-12-11T04:38:48.908Z,38.88
2022-12-11T04:41:17.989Z,39.72
2022-12-11T04:46:39.718Z,45.03
2022-12-11T04:49:07.415Z,44.10
2022-12-11T04:51:35.023Z,43.25
2022-12-11T04:54:02.616Z,40.88
2022-12-11T04:56:30.297Z,44.38
2022-12-11T04:58:57.863Z,44.58
2022-12-11T05:01:25.532Z,46.00
2022-12-11T05:04:18.649Z,45.28
2022-12-11T05:06:47.344Z,47.88
2022-12-11T05:09:16.990Z,44.58
2022-12-11T05:11:44.974Z,45.50
2022-12-11T05:14:12.988Z,44.58
2022-12-11T05:16:40.621Z,39.28
2022-12-11T05:19:09.898Z,42.33
2022-12-11T05:21:37.536Z,45.42
2022-12-11T05:24:05.861Z,46.10
2022-12-11T05:29:27.971Z,42.30
2022-12-11T05:31:56.735Z,43.95
2022-12-11T05:34:25.771Z,49.42
2022-12-11T05:36:54.313Z,45.00
2022-12-11T05:39:22.128Z,46.97
2022-12-11T05:41:49.741Z,44.78
2022-12-11T05:44:17.390Z,39.83
2022-12-11T05:46:45.066Z,41.28
2022-12-11T05:49:12.775Z,42.08
2022-12-11T05:51:43.979Z,45.13
2022-12-11T05:54:12.388Z,48.20
2022-12-11T05:56:40.782Z,44.80
2022-12-11T05:59:09.212Z,43.53
2022-12-11T06:01:39.161Z,44.17
2022-12-11T06:04:08.644Z,48.40
2022-12-11T06:06:37.003Z,51.00
2022-12-11T06:09:07.351Z,44.85
2022-12-11T06:11:36.831Z,43.10
2022-12-11T06:14:05.061Z,41.03
2022-12-11T06:16:33.241Z,43.13
2022-12-11T06:19:00.852Z,38.38
2022-12-11T06:21:30.409Z,41.30
2022-12-11T06:24:24.967Z,37.90
2022-12-11T06:26:56.506Z,37.22
2022-12-11T06:29:24.112Z,35.47
2022-12-11T06:31:51.755Z,39.88
2022-12-11T06:34:19.405Z,37.42
2022-12-11T06:36:47.083Z,41.70
2022-12-11T06:39:15.427Z,39.42
2022-12-11T06:41:45.035Z,42.50
2022-12-11T06:44:13.114Z,38.95
2022-12-11T06:46:40.958Z,36.65
2022-12-11T06:49:08.570Z,39.72
2022-12-11T06:51:36.190Z,35.42
2022-12-11T06:54:03.800Z,36.40
2022-12-11T06:56:31.514Z,33.97
2022-12-11T06:59:05.691Z,36.25
2022-12-11T07:01:35.980Z,32.95
2022-12-11T07:04:03.548Z,35.70
2022-12-11T07:06:31.563Z,41.08
2022-12-11T07:08:59.158Z,36.55
2022-12-11T07:11:26.891Z,35.28
2022-12-11T07:14:01.339Z,37.10
2022-12-11T07:16:30.108Z,33.17
2022-12-11T07:18:59.876Z,37.83
2022-12-11T07:21:27.491Z,34.30
2022-12-11T07:23:55.507Z,35.90
2022-12-11T07:26:23.419Z,40.65
2022-12-11T07:28:51.592Z,34.67
2022-12-11T07:31:25.127Z,36.80
2022-12-11T07:33:54.980Z,36.05
2022-12-11T07:36:24.270Z,34.17
2022-12-11T07:38:51.896Z,39.67
2022-12-11T07:41:20.005Z,38.13
2022-12-11T07:43:53.979Z,36.50
2022-12-11T07:46:25.800Z,34.83
2022-12-11T07:48:54.111Z,36.38
2022-12-11T07:51:26.294Z,33.50
2022-12-11T07:54:04.993Z,37.17
2022-12-11T07:56:32.852Z,35.00
2022-12-11T07:59:01.384Z,33.83
2022-12-11T08:01:32.455Z,35.78
2022-12-11T08:04:25.348Z,38.03
2022-12-11T08:06:53.666Z,35.20
2022-12-11T08:09:22.537Z,36.00
2022-12-11T08:11:51.227Z,36.47
2022-12-11T08:14:19.446Z,38.75
2022-12-11T08:16:50.072Z,39.50
2022-12-11T08:19:18.606Z,36.43
2022-12-11T08:21:46.741Z,32.75
2022-12-11T08:24:16.972Z,36.50
2022-12-11T08:26:45.517Z,34.45
2022-12-11T08:29:13.106Z,37.13
2022-12-11T08:31:42.044Z,33.80
2022-12-11T08:34:13.728Z,34.22
2022-12-11T08:36:43.808Z,37.60
2022-12-11T08:39:11.436Z,39.33
2022-12-11T08:41:39.044Z,30.85
2022-12-11T08:44:16.275Z,38.75
2022-12-11T08:46:45.114Z,35.65
2022-12-11T08:49:18.371Z,38.28
2022-12-11T08:51:47.066Z,39.97
2022-12-11T08:54:14.728Z,38.83
2022-12-11T08:56:42.325Z,36.88
2022-12-11T08:59:10.068Z,36.92
2022-12-11T09:01:37.778Z,36.15
2022-12-11T09:04:05.509Z,41.42
2022-12-11T09:06:34.621Z,35.72
2022-12-11T09:09:04.326Z,38.25
2022-12-11T09:11:34.977Z,39.08
2022-12-11T09:14:07.639Z,39.00
2022-12-11T09:16:39.611Z,38.75
2022-12-11T09:19:10.969Z,37.55
2022-12-11T09:21:40.524Z,35.28
2022-12-11T09:24:11.041Z,40.40
2022-12-11T09:26:39.166Z,32.20
2022-12-11T09:29:07.644Z,38.30
2022-12-11T09:31:37.193Z,34.28
2022-12-11T09:34:08.128Z,34.70
2022-12-11T09:36:35.917Z,36.85
2022-12-11T09:39:06.692Z,39.28
2022-12-11T09:41:38.957Z,37.47
2022-12-11T09:44:19.117Z,39.10
2022-12-11T09:46:48.107Z,41.00
2022-12-11T09:49:26.093Z,35.10
2022-12-11T09:52:04.950Z,33.55
2022-12-11T09:54:35.047Z,36.83
2022-12-11T09:57:14.870Z,36.55
2022-12-11T09:59:53.057Z,34.20
2022-12-11T10:02:32.019Z,38.55
2022-12-11T10:05:10.129Z,37.90
2022-12-11T10:07:47.014Z,38.30
2022-12-11T10:10:26.825Z,41.08
2022-12-11T10:13:06.535Z,42.70
2022-12-11T10:15:40.585Z,39.38
2022-12-11T10:18:14.042Z,37.22
2022-12-11T10:20:42.745Z,40.97
2022-12-11T10:23:16.359Z,39.13
2022-12-11T10:25:51.277Z,36.05
2022-12-11T10:28:23.129Z,38.75
2022-12-11T10:30:59.120Z,39.40
2022-12-11T10:33:35.678Z,38.75
2022-12-11T10:36:04.079Z,40.33
2022-12-11T10:38:33.338Z,40.28
2022-12-11T10:41:05.406Z,36.33
2022-12-11T10:43:35.183Z,38.13
2022-12-11T10:46:02.878Z,37.10
2022-12-11T10:48:33.944Z,39.15
2022-12-11T10:51:04.766Z,43.80
2022-12-11T10:53:34.942Z,39.85
2022-12-11T10:56:04.062Z,40.63
2022-12-11T10:58:34.411Z,39.92
2022-12-11T11:01:08.848Z,42.85
2022-12-11T11:03:42.999Z,42.92
2022-12-11T11:06:17.940Z,40.95
2022-12-11T11:08:47.752Z,41.38
2022-12-11T11:11:26.063Z,40.90
2022-12-11T11:14:05.412Z,44.78
2022-12-11T11:16:36.603Z,42.85
2022-12-11T11:19:04.474Z,47.75
2022-12-11T11:21:33.413Z,42.92
2022-12-11T11:24:01.292Z,40.95
2022-12-11T11:26:56.696Z,47.85
2022-12-11T11:29:30.288Z,42.63
2022-12-11T11:32:03.133Z,44.42
2022-12-11T11:34:30.980Z,41.58
2022-12-11T11:37:05.482Z,46.78
2022-12-11T11:39:36.683Z,44.15
2022-12-11T11:42:14.583Z,46.25
2022-12-11T11:44:46.581Z,44.92
2022-12-11T11:49:55.052Z,44.13
2022-12-11T11:52:29.477Z,37.58
2022-12-11T11:55:06.496Z,44.63
2022-12-11T11:57:42.979Z,44.38
2022-12-11T12:00:20.583Z,44.97
2022-12-11T12:02:52.045Z,44.13
2022-12-11T12:05:27.970Z,43.80
2022-12-11T12:08:08.489Z,42.47
2022-12-11T12:10:48.746Z,46.20
2022-12-11T12:13:48.759Z,45.55
2022-12-11T12:16:52.166Z,42.70
2022-12-11T12:19:30.647Z,48.40
2022-12-11T12:22:06.127Z,51.13
2022-12-11T12:24:42.605Z,46.80
2022-12-11T12:27:50.531Z,47.72
2022-12-11T12:30:21.850Z,43.03
2022-12-11T12:33:02.998Z,44.08
2022-12-11T12:35:36.053Z,47.42
2022-12-11T12:38:14.876Z,47.20
2022-12-11T12:40:57.119Z,44.45
2022-12-11T12:46:13.041Z,47.63
2022-12-11T12:48:40.991Z,41.20
2022-12-11T12:51:14.955Z,51.17
2022-12-11T12:53:49.081Z,47.42
2022-12-11T12:56:17.530Z,45.70
2022-12-11T12:58:46.527Z,51.13
2022-12-11T13:01:20.280Z,44.95
2022-12-11T13:03:55.984Z,45.60
2022-12-11T13:06:32.779Z,49.90
2022-12-11T13:09:13.696Z,47.33
2022-12-11T13:11:41.679Z,43.10
2022-12-11T13:14:27.860Z,46.97
2022-12-11T13:17:09.598Z,43.10
2022-12-11T13:19:42.265Z,46.15
2022-12-11T13:22:23.495Z,46.17
2022-12-11T13:25:01.482Z,48.70
2022-12-11T13:27:41.977Z,44.30
2022-12-11T13:30:23.264Z,44.42
2022-12-11T13:33:02.489Z,47.47
2022-12-11T13:35:31.579Z,41.92
2022-12-11T13:38:05.632Z,48.75
2022-12-11T13:40:39.342Z,43.67
2022-12-11T13:43:17.903Z,46.67
2022-12-11T13:45:50.052Z,42.53
2022-12-11T13:48:25.263Z,42.17
2022-12-11T13:50:54.282Z,43.60
2022-12-11T13:53:22.409Z,36.63
2022-12-11T13:55:57.767Z,37.83
2022-12-11T13:58:25.856Z,43.53
2022-12-11T14:01:07.495Z,40.97
2022-12-11T14:03:36.898Z,41.85
2022-12-11T14:06:05.128Z,42.08
2022-12-11T14:08:35.435Z,40.63
2022-12-11T14:11:03.700Z,40.22
2022-12-11T14:13:35.266Z,38.80
2022-12-11T14:16:05.089Z,39.17
2022-12-11T14:18:36.722Z,41.45
2022-12-11T14:21:07.966Z,40.20
2022-12-11T14:23:37.959Z,38.33
2022-12-11T14:26:17.607Z,39.67
2022-12-11T14:28:45.556Z,43.58
2022-12-11T14:31:20.490Z,38.78
2022-12-11T14:33:54.789Z,35.33
2022-12-11T14:36:23.994Z,37.70
2022-12-11T14:38:56.671Z,37.58
2022-12-11T14:41:28.413Z,40.22
2022-12-11T14:44:00.479Z,40.17
2022-12-11T14:46:37.636Z,41.85
2022-12-11T14:49:13.719Z,37.92
2022-12-11T14:51:42.896Z,37.30
2022-12-11T14:54:20.531Z,34.60
2022-12-11T14:57:12.717Z,37.03
2022-12-11T14:59:46.710Z,38.30
2022-12-11T15:02:27.339Z,37.28
2022-12-11T15:05:04.603Z,38.08
2022-12-11T15:07:32.899Z,34.78
2022-12-11T15:10:00.593Z,39.55
2022-12-11T15:12:32.964Z,36.75
2022-12-11T15:15:04.192Z,32.95
2022-12-11T15:17:34.513Z,41.40
2022-12-11T15:20:08.519Z,35.92
2022-12-11T15:22:37.470Z,37.05
2022-12-11T15:25:06.872Z,32.78
2022-12-11T15:27:36.937Z,39.70
2022-12-11T15:30:26.868Z,37.10
2022-12-11T15:33:03.572Z,35.55
2022-12-11T15:35:33.103Z,37.08
2022-12-11T15:38:02.480Z,36.05
2022-12-11T15:40:32.133Z,36.35
2022-12-11T15:43:03.217Z,37.60
2022-12-11T15:45:30.847Z,39.00
2022-12-11T15:47:59.436Z,38.08
2022-12-11T15:50:29.083Z,36.40
2022-12-11T15:52:59.954Z,39.30
2022-12-11T15:55:34.155Z,38.97
2022-12-11T15:58:04.319Z,39.80
2022-12-11T16:00:33.059Z,39.63
2022-12-11T16:03:00.815Z,36.92
2022-12-11T16:05:29.054Z,41.72
2022-12-11T16:07:59.538Z,36.63
2022-12-11T16:10:27.765Z,38.00
2022-12-11T16:12:59.376Z,35.75
2022-12-11T16:15:28.701Z,41.47
2022-12-11T16:18:01.877Z,40.90
2022-12-11T16:20:30.828Z,36.53
2022-12-11T16:23:00.394Z,38.80
2022-12-11T16:25:28.856Z,35.67
2022-12-11T16:27:57.434Z,37.10
2022-12-11T16:30:26.103Z,40.22
2022-12-11T16:32:54.154Z,39.80
2022-12-11T16:35:22.716Z,38.05
2022-12-11T16:37:51.296Z,40.08
2022-12-11T16:40:21.178Z,44.58
2022-12-11T16:42:50.239Z,41.70
2022-12-11T16:45:19.773Z,41.67
2022-12-11T16:47:47.670Z,38.88
2022-12-11T16:50:17.321Z,42.72
2022-12-11T16:52:47.929Z,43.33
2022-12-11T16:57:51.874Z,40.90
2022-12-11T17:00:20.409Z,36.00
2022-12-11T17:02:48.215Z,39.05
2022-12-11T17:05:16.001Z,40.03
2022-12-11T17:07:44.020Z,35.22
2022-12-11T17:10:11.877Z,38.15
2022-12-11T17:12:39.730Z,38.30
2022-12-11T17:15:10.073Z,40.70
2022-12-11T17:17:38.093Z,38.67
2022-12-11T17:20:06.864Z,39.22
2022-12-11T17:22:36.440Z,38.72
2022-12-11T17:25:04.660Z,40.72
2022-12-11T17:27:32.459Z,43.75
2022-12-11T17:30:00.231Z,41.35
2022-12-11T17:32:30.086Z,42.90
2022-12-11T17:34:57.666Z,44.08
2022-12-11T17:37:25.423Z,42.30
2022-12-11T17:39:53.082Z,42.13
2022-12-11T17:42:20.709Z,41.00
2022-12-11T17:44:48.433Z,39.10
2022-12-11T17:47:18.059Z,39.65
2022-12-11T17:49:47.039Z,42.67
2022-12-11T17:52:14.655Z,45.85
2022-12-11T17:54:42.978Z,43.25
2022-12-11T17:57:10.579Z,42.38
2022-12-11T17:59:38.331Z,41.22
2022-12-11T18:02:06.142Z,39.63
2022-12-11T18:04:33.787Z,42.80
2022-12-11T18:07:02.959Z,46.35
2022-12-11T18:09:31.496Z,45.85
2022-12-11T18:12:00.104Z,40.50
2022-12-11T18:14:29.376Z,43.22
2022-12-11T18:16:57.015Z,44.65
2022-12-11T18:19:26.861Z,45.50
2022-12-11T18:21:55.410Z,49.00
2022-12-11T18:24:31.463Z,40.95
2022-12-11T18:26:59.780Z,38.38
2022-12-11T18:29:27.394Z,36.53
2022-12-11T18:31:55.144Z,38.03
2022-12-11T18:34:22.863Z,37.80
2022-12-11T18:36:50.476Z,35.20
2022-12-11T18:39:19.516Z,35.88
2022-12-11T18:42:03.392Z,36.28
2022-12-11T18:44:37.636Z,35.78
2022-12-11T18:47:09.073Z,34.58
2022-12-11T18:49:38.396Z,36.55
2022-12-11T18:52:06.265Z,35.10
2022-12-11T18:54:34.019Z,35.63
2022-12-11T18:57:03.081Z,33.50
2022-12-11T18:59:31.512Z,33.05
2022-12-11T19:01:59.248Z,35.70
2022-12-11T19:04:27.827Z,37.45
2022-12-11T19:06:55.482Z,33.72
2022-12-11T19:09:23.528Z,34.15
2022-12-11T19:11:51.182Z,33.80
2022-12-11T19:14:20.188Z,36.20
2022-12-11T19:16:49.783Z,36.42
2022-12-11T19:19:20.329Z,36.40
2022-12-11T19:21:48.957Z,33.25
2022-12-11T19:24:19.111Z,36.20
2022-12-11T19:26:47.711Z,36.88
2022-12-11T19:29:22.975Z,32.97
2022-12-11T19:31:51.912Z,33.15
2022-12-11T19:34:20.082Z,35.20
2022-12-11T19:36:49.023Z,36.53
2022-12-11T19:39:17.157Z,34.13
2022-12-11T19:41:44.808Z,34.15
2022-12-11T19:44:13.113Z,37.50
2022-12-11T19:46:43.033Z,33.55
2022-12-11T19:49:12.496Z,35.50
2022-12-11T19:51:42.995Z,34.88
2022-12-11T19:54:15.073Z,33.78
2022-12-11T19:56:45.101Z,36.53
2022-12-11T19:59:16.607Z,37.05
2022-12-11T20:01:47.876Z,33.83
2022-12-11T20:04:17.979Z,38.00
2022-12-11T20:06:49.064Z,34.63
2022-12-11T20:09:17.954Z,37.07
2022-12-11T20:11:47.255Z,36.50
2022-12-11T20:14:20.931Z,37.05
2022-12-11T20:17:10.873Z,37.78
2022-12-11T20:19:38.968Z,33.03
2022-12-11T20:22:06.939Z,36.75
2022-12-11T20:24:38.003Z,34.53
2022-12-11T20:27:06.662Z,36.07
2022-12-11T20:29:34.562Z,36.95
2022-12-11T20:32:03.640Z,35.33
2022-12-11T20:34:31.985Z,35.13
2022-12-11T20:37:00.219Z,34.30
2022-12-11T20:39:27.999Z,34.30
2022-12-11T20:41:55.643Z,36.60
2022-12-11T20:44:23.276Z,35.42
2022-12-11T20:46:51.703Z,36.40
2022-12-11T20:49:20.851Z,33.25
2022-12-11T20:51:49.959Z,33.35
2022-12-11T20:54:17.643Z,33.42
2022-12-11T20:56:45.247Z,36.75
2022-12-11T20:59:13.236Z,37.10
2022-12-11T21:01:41.946Z,35.47
2022-12-11T21:04:09.709Z,38.03
2022-12-11T21:06:40.595Z,39.38
2022-12-11T21:09:12.056Z,35.42
2022-12-11T21:11:41.614Z,37.70
2022-12-11T21:14:09.374Z,34.03
2022-12-11T21:16:38.067Z,35.10
2022-12-11T21:19:06.717Z,36.75
2022-12-11T21:21:36.852Z,35.75
2022-12-11T21:24:08.152Z,34.90
2022-12-11T21:26:36.127Z,37.33
2022-12-11T21:29:04.072Z,31.90
2022-12-11T21:31:32.168Z,35.30
2022-12-11T21:34:00.076Z,36.40
2022-12-11T21:36:27.712Z,34.63
2022-12-11T21:38:55.430Z,33.95
2022-12-11T21:41:25.316Z,36.45
2022-12-11T21:46:44.178Z,38.33
2022-12-11T21:49:11.954Z,35.33
2022-12-11T21:51:46.900Z,36.13
2022-12-11T21:54:18.894Z,34.78
2022-12-11T21:56:48.426Z,38.17
2022-12-11T21:59:41.212Z,34.75
2022-12-11T22:02:11.964Z,36.15
2022-12-11T22:04:40.129Z,38.42
2022-12-11T22:07:07.772Z,38.05
2022-12-11T22:09:35.939Z,40.58
2022-12-11T22:12:06.267Z,40.55
2022-12-11T22:14:34.582Z,43.80
2022-12-11T22:17:03.483Z,40.13
2022-12-11T22:19:32.853Z,39.97
2022-12-11T22:22:00.725Z,39.13
2022-12-11T22:24:28.398Z,41.58
2022-12-11T22:26:56.087Z,37.83
2022-12-11T22:29:25.108Z,44.00
2022-12-11T22:31:55.971Z,40.45
2022-12-11T22:34:23.842Z,43.05
2022-12-11T22:36:51.518Z,40.45
2022-12-11T22:39:19.128Z,41.35
2022-12-11T22:41:46.780Z,41.17
2022-12-11T22:44:16.661Z,42.88
2022-12-11T22:46:49.869Z,41.78
2022-12-11T22:49:18.918Z,42.65
2022-12-11T22:51:47.957Z,41.92
2022-12-11T22:54:15.667Z,44.70
2022-12-11T22:56:44.219Z,38.80
2022-12-11T22:59:11.826Z,43.90
2022-12-11T23:01:39.783Z,45.05
2022-12-11T23:04:08.812Z,47.95
2022-12-11T23:06:37.076Z,41.95
2022-12-11T23:09:05.015Z,46.05
2022-12-11T23:11:36.207Z,43.50
2022-12-11T23:14:04.637Z,42.85
2022-12-11T23:16:32.505Z,42.03
2022-12-11T23:19:00.815Z,46.65
2022-12-11T23:21:30.098Z,44.20
2022-12-11T23:23:58.790Z,41.83
2022-12-11T23:26:28.948Z,42.08
2022-12-11T23:28:58.561Z,42.83
2022-12-11T23:31:27.270Z,46.05
2022-12-11T23:33:56.946Z,44.63
2022-12-11T23:36:25.931Z,44.42
2022-12-11T23:38:56.091Z,45.13
2022-12-11T23:41:25.924Z,43.60
2022-12-11T23:43:53.555Z,42.22
2022-12-11T23:46:24.987Z,46.95
2022-12-11T23:48:55.130Z,44.22
2022-12-11T23:51:25.084Z,42.30
2022-12-11T23:53:56.061Z,43.60
2022-12-11T23:56:26.561Z,40.60
2022-12-11T23:58:55.174Z,42.35
